KBWG

Bowling Green-Warren County Regional Airport

Bowling Green, Kentucky, USA
METAR KBWG 230053Z AUTO 20005KT 10SM CLR 13/02 A3021 RMK AO2 SLP231 T01330017
Observed Flight Rules
Oct-23 @ 00:53 UTC (8 minutes ago) Visual Flight Rules
Wind Visibility Clouds
200° at 5 knots 10 miles
  • Clear skies
Temperatures Readings
Current 13°C / 55°F
Dewpoint 2°C / 36°F
Humidity 47%
Altimeter 30.21" Hg
Pressure 1023.1 hPa
Elevation 168
METAR KBWG 230053Z AUTO 20005KT 10SM CLR 13/02 A3021 RMK AO2 SLP231 T01330017
Observed Flight Rules
Oct-23 @ 00:53 UTC
(8 minutes ago)
VFR
Wind Visibility
200° at 5 knots 10 miles
Clouds
  • Clear skies
Temperature Dewpoint
13°C / 55°F 2°C / 36°F
Humidity Altimeter Pressure
47% 30.21" Hg 1023.1 hPa